Aliso Viejo, California
Current Conditions -  °F | °C
As of 7:53 AM on Sunday 23 Nov 2014 (Local Time) from KSNA Reporting Station
Broken Clouds Broken Clouds  
Wind Chill: 64°   Ceiling: 28000
Heat Index: 64°   Visibility: 10mi
Dew Point: 49°   Wind: 8mph
Humidity: 58%   Direction: 340°NNW
Pressure: 30.09"   Gusts: NA
Location:  33.57°N, 117.72°W
Report Text: KSNA 231553Z 34007KT 10SM FEW230 BKN280 18/09 A3009 RMK AO2 SLP189 T01780094
Loading
Personal Weather Stations






























Interactive Weather Map New forecast layout! Learn more

10-Day Weather Forecast

Advertisements
Track Severe Weather on mobile